Edt Yam — 5BWL3 — position and weather

sailwx.info

Track history (hours):
 
Tides and Currents Weather Stations Pressure Air Temp Water Temp Dewpoint Dewpoint Depression Visibility Wind Speed Wind Dir Waves Ship Positions

Edt Yam

Last reported at 2018-Feb-20 23:57 UTC. Time now 2018-Feb-21 00:03 UTC.
Position N 32°52' E 034°58'.

Length 76 m; draft 3.2 m.

Type: Dredging. MMSI: 212212000.

Date/timePositionNaut miles runAvg speedWind from/ knotsBaromVisibWave heightAir tempDewpointWater temp
2018-Feb-20 23:57N 32°52' E 034°58'4 8.2
2018-Feb-20 23:30N 32°55' E 034°55'4 8.4
2018-Feb-20 23:00N 32°57' E 034°52'1 1.6
2018-Feb-20 22:29N 32°58' E 034°51'3 6.4
2018-Feb-20 22:00N 32°56' E 034°54'4 8.4
2018-Feb-20 21:30N 32°53' E 034°57'4 0.5
2018-Feb-20 13:43N 32°50' E 035°01'2 9.3
2018-Feb-20 13:28N 32°52' E 034°59'4 8.9
2018-Feb-20 12:59N 32°55' E 034°55'4 8.6
2018-Feb-20 12:29N 32°58' E 034°51'1 2.0
2018-Feb-20 11:56N 32°57' E 034°52'4 8.1
2018-Feb-20 11:30N 32°55' E 034°55'4 8.1
2018-Feb-20 11:00N 32°52' E 034°59'3 0.4
2018-Feb-20 03:58N 32°50' E 035°01'3 5.4
2018-Feb-20 03:29N 32°52' E 034°59'4 7.4
2018-Feb-20 03:00N 32°53' E 034°55'4 8.1
2018-Feb-20 02:29N 32°57' E 034°52'2 3.3
2018-Feb-20 02:00N 32°58' E 034°51'4 7.0
2018-Feb-20 01:29N 32°56' E 034°54'4 8.2
2018-Feb-20 00:58N 32°53' E 034°58'3 0.4
2018-Feb-19 16:41N 32°50' E 035°01'1 6.7
2018-Feb-19 16:28N 32°51' E 034°60'4 8.6
2018-Feb-19 16:00N 32°54' E 034°56'4 8.5
2018-Feb-19 15:29N 32°57' E 034°52'1 2.8
2018-Feb-19 15:00N 32°58' E 034°51'3 6.9
2018-Feb-19 14:30N 32°56' E 034°54'4 7.8
2018-Feb-19 13:59N 32°53' E 034°58'3 0.1
2018-Feb-17 10:02N 32°51' E 035°00'1 9.4
2018-Feb-17 09:56N 32°52' E 034°59'4 8.7
2018-Feb-17 09:28N 32°54' E 034°56'4 8.3
2018-Feb-17 09:00N 32°57' E 034°52'2 3.5
2018-Feb-17 08:30N 32°58' E 034°51'5 7.9
2018-Feb-17 07:56N 32°55' E 034°55'4 8.4
2018-Feb-17 07:28N 32°52' E 034°58'2 0.1
2018-Feb-16 18:50N 32°51' E 034°59'3 9.6
2018-Feb-16 18:28N 32°54' E 034°57'510.0
2018-Feb-16 18:00N 32°57' E 034°53'2 3.4
2018-Feb-16 17:29N 32°58' E 034°51'3 5.8
2018-Feb-16 17:00N 32°56' E 034°53'5 9.0
2018-Feb-16 16:25N 32°53' E 034°58'1 0.1
2018-Feb-16 05:59N 32°52' E 034°59'5 8.8
2018-Feb-16 05:27N 32°55' E 034°55'4 8.7
2018-Feb-16 05:00N 32°58' E 034°52'0 0.4
2018-Feb-16 04:30N 32°58' E 034°52'5 9.0
2018-Feb-16 03:57N 32°54' E 034°56'6 0.6
2018-Feb-15 18:30N 32°50' E 035°01'6 9.2
2018-Feb-15 17:54N 32°54' E 034°56'5 9.1
2018-Feb-15 17:24N 32°57' E 034°52'1 2.7
2018-Feb-15 17:00N 32°58' E 034°51'4 8.4
2018-Feb-15 16:30N 32°55' E 034°55'5 8.5
2018-Feb-15 15:55N 32°52' E 034°59'1 0.0
2018-Feb-14 11:32N 32°51' E 034°60'2 9.5
2018-Feb-14 11:20N 32°52' E 034°58'3 9.3
2018-Feb-14 10:59N 32°55' E 034°55'5 9.1
2018-Feb-14 10:28N 32°58' E 034°51'2 3.7
2018-Feb-14 09:59N 32°57' E 034°53'5 8.5
2018-Feb-14 09:22N 32°53' E 034°57'3 0.1
2018-Feb-13 07:56N 32°51' E 034°60'4 8.4
2018-Feb-13 07:30N 32°52' E 034°56'5 9.0
2018-Feb-13 07:00N 32°50' E 034°51'4 7.2
2018-Feb-13 06:30N 32°47' E 034°50'4 7.9
2018-Feb-13 06:00N 32°43' E 034°48'4 8.7
2018-Feb-13 05:30N 32°39' E 034°47'4 9.1
2018-Feb-13 05:00N 32°35' E 034°45'4 9.0
2018-Feb-13 04:30N 32°30' E 034°44'5 9.4
2018-Feb-13 04:00N 32°26' E 034°42'5 9.6
2018-Feb-13 03:30N 32°21' E 034°41'5 9.5
2018-Feb-13 03:00N 32°17' E 034°39'5 9.6
2018-Feb-13 02:30N 32°12' E 034°37'5 9.6
2018-Feb-13 02:00N 32°07' E 034°36'  
Track history (hours):
 
Tides and Currents Weather Stations Pressure Air Temp Water Temp Dewpoint Dewpoint Depression Visibility Wind Speed Wind Dir Waves Ship Positions

Edt Yam

Last reported at 2018-Feb-20 23:57 UTC. Time now 2018-Feb-21 00:03 UTC.
Position N 32°52' E 034°58'.

Length 76 m; draft 3.2 m.

Type: Dredging. MMSI: 212212000.

Date/timePositionNaut miles runAvg speedWind from/ knotsBaromVisibWave heightAir tempDewpointWater temp
2018-Feb-20 23:57N 32°52' E 034°58'4 8.2
2018-Feb-20 23:30N 32°55' E 034°55'4 8.4
2018-Feb-20 23:00N 32°57' E 034°52'1 1.6
2018-Feb-20 22:29N 32°58' E 034°51'3 6.4
2018-Feb-20 22:00N 32°56' E 034°54'4 8.4
2018-Feb-20 21:30N 32°53' E 034°57'4 0.5
2018-Feb-20 13:43N 32°50' E 035°01'2 9.3
2018-Feb-20 13:28N 32°52' E 034°59'4 8.9
2018-Feb-20 12:59N 32°55' E 034°55'4 8.6
2018-Feb-20 12:29N 32°58' E 034°51'1 2.0
2018-Feb-20 11:56N 32°57' E 034°52'4 8.1
2018-Feb-20 11:30N 32°55' E 034°55'4 8.1
2018-Feb-20 11:00N 32°52' E 034°59'3 0.4
2018-Feb-20 03:58N 32°50' E 035°01'3 5.4
2018-Feb-20 03:29N 32°52' E 034°59'4 7.4
2018-Feb-20 03:00N 32°53' E 034°55'4 8.1
2018-Feb-20 02:29N 32°57' E 034°52'2 3.3
2018-Feb-20 02:00N 32°58' E 034°51'4 7.0
2018-Feb-20 01:29N 32°56' E 034°54'4 8.2
2018-Feb-20 00:58N 32°53' E 034°58'3 0.4
2018-Feb-19 16:41N 32°50' E 035°01'1 6.7
2018-Feb-19 16:28N 32°51' E 034°60'4 8.6
2018-Feb-19 16:00N 32°54' E 034°56'4 8.5
2018-Feb-19 15:29N 32°57' E 034°52'1 2.8
2018-Feb-19 15:00N 32°58' E 034°51'3 6.9
2018-Feb-19 14:30N 32°56' E 034°54'4 7.8
2018-Feb-19 13:59N 32°53' E 034°58'3 0.1
2018-Feb-17 10:02N 32°51' E 035°00'1 9.4
2018-Feb-17 09:56N 32°52' E 034°59'4 8.7
2018-Feb-17 09:28N 32°54' E 034°56'4 8.3
2018-Feb-17 09:00N 32°57' E 034°52'2 3.5
2018-Feb-17 08:30N 32°58' E 034°51'5 7.9
2018-Feb-17 07:56N 32°55' E 034°55'4 8.4
2018-Feb-17 07:28N 32°52' E 034°58'2 0.1
2018-Feb-16 18:50N 32°51' E 034°59'3 9.6
2018-Feb-16 18:28N 32°54' E 034°57'510.0
2018-Feb-16 18:00N 32°57' E 034°53'2 3.4
2018-Feb-16 17:29N 32°58' E 034°51'3 5.8
2018-Feb-16 17:00N 32°56' E 034°53'5 9.0
2018-Feb-16 16:25N 32°53' E 034°58'1 0.1
2018-Feb-16 05:59N 32°52' E 034°59'5 8.8
2018-Feb-16 05:27N 32°55' E 034°55'4 8.7
2018-Feb-16 05:00N 32°58' E 034°52'0 0.4
2018-Feb-16 04:30N 32°58' E 034°52'5 9.0
2018-Feb-16 03:57N 32°54' E 034°56'6 0.6
2018-Feb-15 18:30N 32°50' E 035°01'6 9.2
2018-Feb-15 17:54N 32°54' E 034°56'5 9.1
2018-Feb-15 17:24N 32°57' E 034°52'1 2.7
2018-Feb-15 17:00N 32°58' E 034°51'4 8.4
2018-Feb-15 16:30N 32°55' E 034°55'5 8.5
2018-Feb-15 15:55N 32°52' E 034°59'1 0.0
2018-Feb-14 11:32N 32°51' E 034°60'2 9.5
2018-Feb-14 11:20N 32°52' E 034°58'3 9.3
2018-Feb-14 10:59N 32°55' E 034°55'5 9.1
2018-Feb-14 10:28N 32°58' E 034°51'2 3.7
2018-Feb-14 09:59N 32°57' E 034°53'5 8.5
2018-Feb-14 09:22N 32°53' E 034°57'3 0.1
2018-Feb-13 07:56N 32°51' E 034°60'4 8.4
2018-Feb-13 07:30N 32°52' E 034°56'5 9.0
2018-Feb-13 07:00N 32°50' E 034°51'4 7.2
2018-Feb-13 06:30N 32°47' E 034°50'4 7.9
2018-Feb-13 06:00N 32°43' E 034°48'4 8.7
2018-Feb-13 05:30N 32°39' E 034°47'4 9.1
2018-Feb-13 05:00N 32°35' E 034°45'4 9.0
2018-Feb-13 04:30N 32°30' E 034°44'5 9.4
2018-Feb-13 04:00N 32°26' E 034°42'5 9.6
2018-Feb-13 03:30N 32°21' E 034°41'5 9.5
2018-Feb-13 03:00N 32°17' E 034°39'5 9.6
2018-Feb-13 02:30N 32°12' E 034°37'5 9.6
2018-Feb-13 02:00N 32°07' E 034°36'  

Dump ship's entire track history